createdAt,value
2022-07-31T00:03:03.734Z,1.50
2022-07-31T00:06:25.721Z,1.70
2022-07-31T00:09:53.571Z,1.73
2022-07-31T00:13:16.505Z,1.80
2022-07-31T00:16:38.343Z,1.70
2022-07-31T00:20:00.219Z,2.13
2022-07-31T00:23:22.305Z,1.67
2022-07-31T00:26:43.986Z,2.28
2022-07-31T00:30:06.698Z,1.80
2022-07-31T00:33:28.540Z,1.85
2022-07-31T00:36:50.424Z,1.85
2022-07-31T00:40:15.442Z,2.35
2022-07-31T00:43:37.142Z,1.52
2022-07-31T00:46:59.000Z,1.92
2022-07-31T00:50:22.706Z,2.22
2022-07-31T00:53:44.620Z,2.05
2022-07-31T00:57:07.790Z,1.77
2022-07-31T01:00:29.695Z,1.70
2022-07-31T01:03:51.378Z,2.15
2022-07-31T01:07:13.147Z,1.83
2022-07-31T01:11:08.924Z,1.75
2022-07-31T01:14:45.888Z,1.70
2022-07-31T01:18:11.205Z,2.10
2022-07-31T01:21:39.832Z,2.03
2022-07-31T01:25:10.440Z,1.70
2022-07-31T01:29:09.958Z,1.88
2022-07-31T01:32:38.438Z,1.80
2022-07-31T01:36:10.656Z,1.98
2022-07-31T01:39:35.979Z,1.95
2022-07-31T01:43:05.240Z,1.85
2022-07-31T01:46:29.044Z,1.90
2022-07-31T01:49:53.114Z,1.80
2022-07-31T01:53:22.920Z,1.95
2022-07-31T01:56:47.851Z,1.85
2022-07-31T02:00:33.256Z,2.17
2022-07-31T02:03:56.290Z,2.00
2022-07-31T02:07:19.531Z,2.00
2022-07-31T02:10:44.623Z,2.20
2022-07-31T02:14:07.333Z,1.90
2022-07-31T02:17:29.993Z,2.10
2022-07-31T02:21:15.241Z,1.90
2022-07-31T02:24:37.119Z,2.00
2022-07-31T02:28:02.696Z,2.40
2022-07-31T02:31:25.820Z,2.28
2022-07-31T02:34:48.345Z,2.10
2022-07-31T02:38:22.130Z,2.03
2022-07-31T02:41:47.333Z,2.20
2022-07-31T02:45:10.766Z,1.80
2022-07-31T02:48:33.117Z,2.47
2022-07-31T02:51:58.835Z,2.53
2022-07-31T02:55:20.807Z,3.20
2022-07-31T02:58:42.898Z,2.60
2022-07-31T03:02:13.454Z,2.25
2022-07-31T03:05:38.140Z,2.55
2022-07-31T03:08:59.956Z,2.22
2022-07-31T03:12:22.396Z,2.20
2022-07-31T03:15:50.227Z,2.10
2022-07-31T03:19:13.844Z,2.58
2022-07-31T03:22:36.026Z,2.58
2022-07-31T03:25:58.145Z,2.28
2022-07-31T03:29:41.874Z,2.38
2022-07-31T03:33:03.373Z,2.60
2022-07-31T03:36:27.433Z,2.47
2022-07-31T03:39:50.490Z,2.40
2022-07-31T03:43:13.806Z,2.58
2022-07-31T03:46:36.079Z,2.60
2022-07-31T03:49:59.778Z,2.60
2022-07-31T03:53:23.018Z,2.28
2022-07-31T03:56:47.941Z,2.28
2022-07-31T04:00:17.159Z,2.25
2022-07-31T04:03:39.909Z,2.80
2022-07-31T04:07:14.725Z,2.38
2022-07-31T04:10:37.388Z,2.30
2022-07-31T04:14:00.194Z,2.35
2022-07-31T04:17:22.092Z,2.35
2022-07-31T04:20:43.874Z,2.42
2022-07-31T04:24:06.370Z,2.00
2022-07-31T04:27:49.047Z,2.70
2022-07-31T04:31:12.104Z,2.47
2022-07-31T04:34:34.971Z,2.30
2022-07-31T04:37:56.964Z,2.40
2022-07-31T04:41:19.289Z,2.13
2022-07-31T04:44:41.387Z,2.40
2022-07-31T04:48:03.493Z,2.60
2022-07-31T04:51:25.312Z,2.75
2022-07-31T04:54:47.139Z,2.55
2022-07-31T04:58:10.302Z,2.70
2022-07-31T05:01:32.579Z,2.50
2022-07-31T05:04:57.251Z,2.30
2022-07-31T05:08:23.858Z,2.25
2022-07-31T05:11:47.149Z,2.30
2022-07-31T05:15:10.556Z,2.20
2022-07-31T05:18:32.331Z,2.60
2022-07-31T05:22:12.855Z,2.22
2022-07-31T05:25:55.227Z,2.55
2022-07-31T05:29:17.724Z,2.30
2022-07-31T05:32:39.516Z,2.25
2022-07-31T05:36:02.020Z,2.22
2022-07-31T05:39:25.075Z,2.00
2022-07-31T05:43:05.181Z,2.10
2022-07-31T05:46:47.800Z,2.78
2022-07-31T05:50:10.339Z,2.53
2022-07-31T05:53:32.510Z,2.30
2022-07-31T05:57:13.149Z,2.00
2022-07-31T06:00:55.003Z,2.40
2022-07-31T06:04:16.772Z,2.60
2022-07-31T06:07:41.587Z,2.90
2022-07-31T06:11:13.035Z,2.53
2022-07-31T06:14:35.105Z,2.95
2022-07-31T06:18:07.049Z,3.92
2022-07-31T06:21:30.799Z,2.85
2022-07-31T06:24:53.166Z,2.55
2022-07-31T06:28:15.865Z,2.30
2022-07-31T06:31:40.195Z,2.80
2022-07-31T06:35:02.711Z,2.50
2022-07-31T06:38:30.731Z,2.50
2022-07-31T06:42:11.370Z,2.60
2022-07-31T06:45:50.782Z,2.38
2022-07-31T06:49:40.782Z,2.50
2022-07-31T06:53:02.579Z,2.90
2022-07-31T06:56:24.583Z,3.38
2022-07-31T06:59:46.324Z,2.47
2022-07-31T07:03:08.860Z,2.70
2022-07-31T07:06:31.381Z,2.50
2022-07-31T07:09:53.686Z,2.42
2022-07-31T07:13:46.294Z,2.83
2022-07-31T07:17:11.156Z,2.70
2022-07-31T07:20:33.508Z,2.22
2022-07-31T07:23:55.901Z,1.83
2022-07-31T07:27:36.322Z,2.03
2022-07-31T07:30:58.981Z,1.90
2022-07-31T07:34:20.843Z,1.85
2022-07-31T07:37:42.713Z,1.90
2022-07-31T07:41:04.582Z,1.80
2022-07-31T07:44:26.421Z,2.50
2022-07-31T07:47:53.869Z,1.70
2022-07-31T07:51:38.625Z,1.65
2022-07-31T07:55:37.572Z,1.42
2022-07-31T07:59:18.060Z,1.40
2022-07-31T08:03:47.567Z,1.20
2022-07-31T08:06:33.545Z,1.85
2022-07-31T08:09:59.638Z,1.20
2022-07-31T08:13:28.857Z,1.52
2022-07-31T08:17:12.649Z,1.33
2022-07-31T08:20:37.501Z,1.15
2022-07-31T08:24:00.372Z,1.40
2022-07-31T08:27:39.500Z,1.13
2022-07-31T08:31:03.720Z,1.50
2022-07-31T08:34:31.039Z,1.35
2022-07-31T08:38:03.308Z,1.40
2022-07-31T08:41:38.623Z,1.40
2022-07-31T08:45:00.455Z,1.20
2022-07-31T08:48:28.441Z,1.25
2022-07-31T08:51:52.841Z,1.23
2022-07-31T08:55:56.443Z,1.15
2022-07-31T08:59:20.648Z,1.33
2022-07-31T09:02:43.344Z,1.40
2022-07-31T09:06:23.513Z,1.48
2022-07-31T09:09:52.213Z,1.73
2022-07-31T09:13:18.057Z,1.60
2022-07-31T09:16:48.988Z,1.42
2022-07-31T09:20:20.912Z,1.60
2022-07-31T09:23:46.913Z,1.40
2022-07-31T09:27:09.767Z,1.65
2022-07-31T09:30:32.972Z,1.88
2022-07-31T09:33:57.610Z,1.60
2022-07-31T09:37:31.507Z,1.70
2022-07-31T09:41:58.048Z,1.40
2022-07-31T09:45:22.635Z,1.65
2022-07-31T09:48:56.654Z,1.40
2022-07-31T09:52:22.924Z,1.48
2022-07-31T09:55:58.476Z,1.63
2022-07-31T09:59:20.187Z,1.80
2022-07-31T10:02:43.729Z,2.00
2022-07-31T10:06:14.715Z,2.25
2022-07-31T10:09:40.932Z,1.80
2022-07-31T10:13:24.296Z,1.80
2022-07-31T10:16:52.025Z,2.28
2022-07-31T10:20:37.435Z,2.83
2022-07-31T10:24:28.661Z,2.17
2022-07-31T10:27:54.314Z,1.80
2022-07-31T10:31:16.991Z,1.92
2022-07-31T10:34:40.479Z,1.73
2022-07-31T10:38:27.185Z,1.75
2022-07-31T10:42:52.755Z,1.88
2022-07-31T10:46:25.866Z,1.63
2022-07-31T10:49:58.567Z,1.73
2022-07-31T10:54:05.484Z,2.22
2022-07-31T10:57:56.749Z,1.60
2022-07-31T11:01:52.989Z,1.75
2022-07-31T11:06:01.930Z,1.75
2022-07-31T11:09:51.339Z,1.90
2022-07-31T11:14:00.844Z,1.40
2022-07-31T11:18:23.887Z,1.90
2022-07-31T11:21:44.047Z,1.60
2022-07-31T11:25:06.054Z,1.27
2022-07-31T11:28:28.644Z,1.27
2022-07-31T11:31:50.670Z,1.33
2022-07-31T11:35:12.450Z,1.48
2022-07-31T11:38:34.749Z,1.35
2022-07-31T11:41:56.863Z,1.55
2022-07-31T11:45:18.587Z,1.50
2022-07-31T11:48:45.196Z,1.65
2022-07-31T11:52:30.431Z,2.05
2022-07-31T11:55:59.237Z,1.23
2022-07-31T11:59:46.289Z,1.15
2022-07-31T12:03:11.307Z,1.60
2022-07-31T12:06:36.486Z,1.42
2022-07-31T12:10:01.372Z,1.75
2022-07-31T12:13:26.273Z,1.67
2022-07-31T12:16:48.074Z,1.40
2022-07-31T12:20:10.255Z,1.73
2022-07-31T12:23:46.411Z,1.40
2022-07-31T12:27:08.442Z,1.50
2022-07-31T12:30:30.261Z,1.50
2022-07-31T12:33:52.217Z,1.30
2022-07-31T12:37:16.651Z,1.48
2022-07-31T12:40:38.469Z,1.50
2022-07-31T12:44:14.684Z,2.03
2022-07-31T12:47:36.620Z,1.13
2022-07-31T12:50:58.717Z,1.50
2022-07-31T12:54:20.521Z,1.58
2022-07-31T12:57:51.484Z,1.38
2022-07-31T13:01:13.795Z,1.23
2022-07-31T13:04:36.606Z,1.45
2022-07-31T13:07:58.580Z,1.40
2022-07-31T13:11:20.385Z,1.23
2022-07-31T13:14:42.187Z,1.40
2022-07-31T13:18:05.052Z,1.63
2022-07-31T13:21:27.472Z,1.58
2022-07-31T13:25:05.380Z,1.58
2022-07-31T13:28:27.133Z,1.50
2022-07-31T13:31:48.875Z,1.60
2022-07-31T13:35:24.283Z,1.83
2022-07-31T13:38:50.974Z,1.70
2022-07-31T13:42:12.702Z,1.85
2022-07-31T13:45:38.471Z,1.60
2022-07-31T13:49:02.026Z,1.88
2022-07-31T13:52:25.390Z,1.27
2022-07-31T13:55:50.041Z,1.40
2022-07-31T13:59:13.702Z,1.40
2022-07-31T14:02:35.588Z,1.38
2022-07-31T14:05:57.509Z,1.60
2022-07-31T14:09:23.418Z,1.10
2022-07-31T14:12:45.227Z,1.50
2022-07-31T14:16:06.887Z,1.65
2022-07-31T14:19:29.695Z,1.50
2022-07-31T14:22:51.978Z,1.60
2022-07-31T14:26:14.685Z,1.65
2022-07-31T14:29:36.486Z,1.50
2022-07-31T14:32:58.539Z,1.63
2022-07-31T14:36:20.302Z,1.45
2022-07-31T14:39:42.909Z,1.40
2022-07-31T14:43:05.122Z,1.63
2022-07-31T14:46:26.907Z,1.60
2022-07-31T14:50:07.861Z,1.48
2022-07-31T14:53:30.417Z,1.60
2022-07-31T14:57:01.230Z,1.52
2022-07-31T15:00:23.630Z,1.40
2022-07-31T15:03:45.316Z,1.73
2022-07-31T15:07:33.824Z,1.60
2022-07-31T15:10:48.809Z,1.55
2022-07-31T15:14:10.525Z,1.55
2022-07-31T15:17:32.328Z,1.30
2022-07-31T15:20:54.404Z,1.30
2022-07-31T15:24:16.246Z,1.20
2022-07-31T15:27:38.020Z,1.70
2022-07-31T15:31:01.274Z,1.50
2022-07-31T15:34:23.312Z,1.50
2022-07-31T15:37:46.040Z,1.48
2022-07-31T15:41:07.786Z,1.60
2022-07-31T15:44:29.565Z,1.88
2022-07-31T15:47:51.364Z,1.38
2022-07-31T15:51:13.122Z,1.95
2022-07-31T15:54:34.909Z,1.30
2022-07-31T15:57:56.740Z,1.67
2022-07-31T16:01:18.921Z,1.25
2022-07-31T16:04:52.018Z,1.50
2022-07-31T16:08:30.364Z,1.50
2022-07-31T16:12:03.551Z,3.67
2022-07-31T16:15:27.094Z,1.58
2022-07-31T16:18:48.904Z,1.55
2022-07-31T16:22:10.635Z,1.30
2022-07-31T16:25:35.006Z,1.38
2022-07-31T16:28:56.941Z,1.30
2022-07-31T16:32:18.835Z,1.30
2022-07-31T16:35:40.712Z,1.45
2022-07-31T16:39:19.369Z,1.52
2022-07-31T16:42:41.980Z,1.40
2022-07-31T16:46:03.741Z,1.48
2022-07-31T16:49:31.883Z,1.33
2022-07-31T16:52:58.831Z,1.58
2022-07-31T16:56:20.657Z,1.52
2022-07-31T16:59:57.088Z,1.70
2022-07-31T17:04:00.586Z,1.50
2022-07-31T17:07:04.530Z,1.45
2022-07-31T17:10:27.092Z,1.52
2022-07-31T17:13:49.566Z,1.67
2022-07-31T17:17:12.388Z,1.60
2022-07-31T17:20:36.642Z,2.42
2022-07-31T17:23:58.402Z,1.40
2022-07-31T17:27:21.094Z,1.70
2022-07-31T17:30:44.917Z,2.03
2022-07-31T17:34:09.356Z,1.77
2022-07-31T17:37:31.457Z,2.17
2022-07-31T17:40:55.023Z,1.90
2022-07-31T17:44:16.900Z,2.17
2022-07-31T17:47:39.029Z,2.10
2022-07-31T17:51:01.296Z,2.67
2022-07-31T17:54:23.210Z,2.08
2022-07-31T17:57:45.038Z,2.17
2022-07-31T18:01:07.337Z,2.40
2022-07-31T18:04:30.483Z,2.13
2022-07-31T18:07:52.254Z,2.10
2022-07-31T18:11:14.016Z,1.92
2022-07-31T18:14:36.118Z,1.55
2022-07-31T18:17:57.802Z,2.00
2022-07-31T18:21:19.560Z,2.20
2022-07-31T18:24:41.388Z,1.73
2022-07-31T18:28:03.349Z,1.90
2022-07-31T18:31:34.598Z,2.15
2022-07-31T18:35:01.196Z,2.20
2022-07-31T18:38:26.163Z,1.98
2022-07-31T18:41:49.094Z,2.20
2022-07-31T18:45:11.175Z,1.73
2022-07-31T18:48:32.874Z,1.63
2022-07-31T18:51:54.615Z,1.83
2022-07-31T18:55:16.409Z,1.65
2022-07-31T18:58:38.148Z,1.60
2022-07-31T19:02:00.245Z,1.63
2022-07-31T19:05:22.838Z,1.50
2022-07-31T19:08:44.803Z,1.55
2022-07-31T19:12:08.470Z,1.58
2022-07-31T19:15:30.508Z,1.42
2022-07-31T19:18:52.378Z,1.63
2022-07-31T19:22:14.497Z,1.40
2022-07-31T19:26:02.459Z,1.42
2022-07-31T19:29:18.901Z,1.85
2022-07-31T19:32:41.630Z,1.30
2022-07-31T19:36:03.620Z,1.30
2022-07-31T19:39:25.470Z,1.20
2022-07-31T19:42:47.120Z,1.45
2022-07-31T19:46:12.031Z,1.13
2022-07-31T19:49:38.124Z,1.02
2022-07-31T19:53:00.145Z,1.30
2022-07-31T19:56:21.878Z,1.05
2022-07-31T19:59:44.897Z,1.13
2022-07-31T20:03:06.778Z,1.30
2022-07-31T20:06:28.965Z,1.50
2022-07-31T20:09:50.782Z,1.30
2022-07-31T20:13:12.588Z,1.02
2022-07-31T20:16:34.579Z,1.00
2022-07-31T20:20:12.613Z,1.00
2022-07-31T20:23:38.641Z,1.05
2022-07-31T20:27:00.565Z,1.10
2022-07-31T20:30:23.213Z,0.90
2022-07-31T20:33:57.072Z,1.00
2022-07-31T20:37:20.022Z,0.85
2022-07-31T20:40:43.360Z,1.20
2022-07-31T20:44:16.140Z,1.00
2022-07-31T20:47:37.942Z,0.93
2022-07-31T20:51:00.999Z,1.10
2022-07-31T20:54:34.372Z,0.90
2022-07-31T20:57:56.687Z,1.05
2022-07-31T21:01:20.107Z,1.20
2022-07-31T21:04:42.909Z,0.88
2022-07-31T21:08:04.709Z,1.17
2022-07-31T21:11:31.172Z,1.00
2022-07-31T21:14:53.668Z,1.20
2022-07-31T21:18:17.132Z,1.08
2022-07-31T21:21:39.014Z,1.10
2022-07-31T21:25:02.901Z,1.20
2022-07-31T21:28:26.743Z,1.30
2022-07-31T21:31:50.229Z,1.08
2022-07-31T21:35:12.847Z,0.90
2022-07-31T21:38:35.606Z,1.10
2022-07-31T21:41:57.835Z,1.00
2022-07-31T21:45:20.084Z,1.30
2022-07-31T21:48:44.358Z,1.13
2022-07-31T21:52:08.148Z,1.13
2022-07-31T21:55:30.054Z,1.00
2022-07-31T21:58:51.833Z,1.48
2022-07-31T22:02:14.058Z,1.38
2022-07-31T22:05:56.593Z,2.53
2022-07-31T22:09:18.992Z,6.70
2022-07-31T22:12:40.807Z,2.50
2022-07-31T22:16:02.805Z,1.40
2022-07-31T22:19:24.913Z,1.23
2022-07-31T22:22:47.092Z,1.27
2022-07-31T22:26:09.495Z,1.02
2022-07-31T22:29:33.178Z,1.10
2022-07-31T22:32:58.749Z,1.30
2022-07-31T22:36:21.206Z,1.23
2022-07-31T22:39:43.516Z,0.90
2022-07-31T22:44:09.303Z,1.20
2022-07-31T22:46:48.453Z,1.00
2022-07-31T22:50:13.931Z,1.17
2022-07-31T22:53:36.231Z,1.20
2022-07-31T22:56:58.153Z,0.85
2022-07-31T23:00:19.983Z,0.98
2022-07-31T23:03:41.829Z,0.98
2022-07-31T23:07:04.223Z,1.08
2022-07-31T23:10:26.516Z,1.05
2022-07-31T23:13:48.201Z,1.25
2022-07-31T23:17:09.975Z,1.00
2022-07-31T23:20:44.646Z,1.20
2022-07-31T23:24:06.635Z,1.10
2022-07-31T23:27:28.485Z,1.00
2022-07-31T23:30:50.338Z,1.30
2022-07-31T23:34:15.823Z,0.95
2022-07-31T23:37:37.588Z,1.10
2022-07-31T23:40:59.468Z,0.95
2022-07-31T23:44:24.978Z,1.38
2022-07-31T23:47:47.106Z,0.90
2022-07-31T23:51:09.007Z,1.00
2022-07-31T23:54:30.812Z,1.10
2022-07-31T23:57:53.009Z,1.13
